sensor_id;sensor_type;location;lat;lon;timestamp;pressure;altitude;pressure_sealevel;temperature;humidity
8699;BME280;4386;51.236;6.742;2022-10-03T00:01:10;102088.66;;;12.69;81.93
8699;BME280;4386;51.236;6.742;2022-10-03T00:02:34;102085.00;;;12.70;82.03
8699;BME280;4386;51.236;6.742;2022-10-03T00:03:50;102086.94;;;12.68;81.89
8699;BME280;4386;51.236;6.742;2022-10-03T00:05:09;102095.00;;;12.67;82.13
8699;BME280;4386;51.236;6.742;2022-10-03T00:06:13;102089.78;;;12.65;82.04
8699;BME280;4386;51.236;6.742;2022-10-03T00:07:30;102097.78;;;12.65;82.34
8699;BME280;4386;51.236;6.742;2022-10-03T00:08:50;102096.06;;;12.64;82.30
8699;BME280;4386;51.236;6.742;2022-10-03T00:10:05;102099.66;;;12.63;82.27
8699;BME280;4386;51.236;6.742;2022-10-03T00:11:20;102100.63;;;12.62;82.38
8699;BME280;4386;51.236;6.742;2022-10-03T00:12:43;102095.41;;;12.61;82.31
8699;BME280;4386;51.236;6.742;2022-10-03T00:18:30;102109.84;;;12.57;82.43
8699;BME280;4386;51.236;6.742;2022-10-03T00:20:59;102104.63;;;12.55;82.47
8699;BME280;4386;51.236;6.742;2022-10-03T00:22:13;102098.56;;;12.53;82.54
8699;BME280;4386;51.236;6.742;2022-10-03T00:23:23;102106.56;;;12.53;82.62
8699;BME280;4386;51.236;6.742;2022-10-03T00:25:41;102105.78;;;12.51;82.60
8699;BME280;4386;51.236;6.742;2022-10-03T00:26:50;102103.22;;;12.49;82.61
8699;BME280;4386;51.236;6.742;2022-10-03T00:28:06;102108.53;;;12.49;82.70
8699;BME280;4386;51.236;6.742;2022-10-03T00:29:24;102108.63;;;12.48;82.70
8699;BME280;4386;51.236;6.742;2022-10-03T00:30:45;102106.09;;;12.46;82.61
8699;BME280;4386;51.236;6.742;2022-10-03T00:32:01;102108.84;;;12.45;83.00
8699;BME280;4386;51.236;6.742;2022-10-03T00:33:15;102113.28;;;12.44;82.81
8699;BME280;4386;51.236;6.742;2022-10-03T00:34:26;102110.75;;;12.43;82.72
8699;BME280;4386;51.236;6.742;2022-10-03T00:35:46;102109.97;;;12.41;82.81
8699;BME280;4386;51.236;6.742;2022-10-03T00:37:05;102113.59;;;12.40;82.81
8699;BME280;4386;51.236;6.742;2022-10-03T00:38:21;102112.75;;;12.39;83.15
8699;BME280;4386;51.236;6.742;2022-10-03T00:39:41;102111.88;;;12.39;83.14
8699;BME280;4386;51.236;6.742;2022-10-03T00:41:03;102110.16;;;12.38;82.93
8699;BME280;4386;51.236;6.742;2022-10-03T00:46:24;102120.91;;;12.36;83.11
8699;BME280;4386;51.236;6.742;2022-10-03T00:49:46;102124.59;;;12.34;82.85
8699;BME280;4386;51.236;6.742;2022-10-03T00:51:06;102121.19;;;12.32;83.21
8699;BME280;4386;51.236;6.742;2022-10-03T00:52:25;102118.59;;;12.30;83.15
8699;BME280;4386;51.236;6.742;2022-10-03T00:53:43;102113.28;;;12.30;83.29
8699;BME280;4386;51.236;6.742;2022-10-03T00:54:57;102116.94;;;12.29;83.35
8699;BME280;4386;51.236;6.742;2022-10-03T00:56:17;102117.78;;;12.30;83.28
8699;BME280;4386;51.236;6.742;2022-10-03T00:59:01;102120.63;;;12.27;83.52
8699;BME280;4386;51.236;6.742;2022-10-03T01:00:17;102128.63;;;12.27;83.29
8699;BME280;4386;51.236;6.742;2022-10-03T01:01:23;102132.09;;;12.27;83.35
8699;BME280;4386;51.236;6.742;2022-10-03T01:02:45;102121.56;;;12.26;83.35
8699;BME280;4386;51.236;6.742;2022-10-03T01:03:55;102125.09;;;12.26;83.43
8699;BME280;4386;51.236;6.742;2022-10-03T01:05:08;102132.22;;;12.26;83.62
8699;BME280;4386;51.236;6.742;2022-10-03T01:06:21;102131.34;;;12.25;83.46
8699;BME280;4386;51.236;6.742;2022-10-03T01:07:51;102127.84;;;12.25;83.48
8699;BME280;4386;51.236;6.742;2022-10-03T01:09:14;102128.78;;;12.24;83.64
8699;BME280;4386;51.236;6.742;2022-10-03T01:10:22;102128.78;;;12.24;83.67
8699;BME280;4386;51.236;6.742;2022-10-03T01:11:39;102136.00;;;12.22;83.66
8699;BME280;4386;51.236;6.742;2022-10-03T01:12:56;102126.22;;;12.22;83.85
8699;BME280;4386;51.236;6.742;2022-10-03T01:14:18;102137.91;;;12.20;83.75
8699;BME280;4386;51.236;6.742;2022-10-03T01:15:28;102133.53;;;12.19;83.93
8699;BME280;4386;51.236;6.742;2022-10-03T01:16:43;102136.28;;;12.17;83.50
8699;BME280;4386;51.236;6.742;2022-10-03T01:18:02;102139.78;;;12.18;83.87
8699;BME280;4386;51.236;6.742;2022-10-03T01:19:27;102135.53;;;12.15;83.99
8699;BME280;4386;51.236;6.742;2022-10-03T01:20:42;102138.19;;;12.15;83.86
8699;BME280;4386;51.236;6.742;2022-10-03T01:25:18;102131.25;;;12.13;83.73
8699;BME280;4386;51.236;6.742;2022-10-03T01:26:46;102137.53;;;12.12;84.05
8699;BME280;4386;51.236;6.742;2022-10-03T01:27:57;102133.25;;;12.09;83.89
8699;BME280;4386;51.236;6.742;2022-10-03T01:29:25;102142.09;;;12.10;83.93
8699;BME280;4386;51.236;6.742;2022-10-03T01:30:53;102136.00;;;12.08;83.88
8699;BME280;4386;51.236;6.742;2022-10-03T01:32:01;102136.00;;;12.08;83.89
8699;BME280;4386;51.236;6.742;2022-10-03T01:33:09;102133.34;;;12.08;84.23
8699;BME280;4386;51.236;6.742;2022-10-03T01:34:21;102138.66;;;12.08;83.98
8699;BME280;4386;51.236;6.742;2022-10-03T01:35:34;102138.66;;;12.08;84.09
8699;BME280;4386;51.236;6.742;2022-10-03T01:36:41;102133.34;;;12.08;84.05
8699;BME280;4386;51.236;6.742;2022-10-03T01:37:57;102138.66;;;12.08;83.91
8699;BME280;4386;51.236;6.742;2022-10-03T01:39:10;102136.97;;;12.07;84.21
8699;BME280;4386;51.236;6.742;2022-10-03T01:40:20;102136.97;;;12.07;84.22
8699;BME280;4386;51.236;6.742;2022-10-03T01:41:33;102143.13;;;12.07;84.31
8699;BME280;4386;51.236;6.742;2022-10-03T01:42:43;102131.66;;;12.07;84.16
8699;BME280;4386;51.236;6.742;2022-10-03T01:43:58;102138.84;;;12.05;84.01
8699;BME280;4386;51.236;6.742;2022-10-03T01:45:12;102146.81;;;12.05;84.30
8699;BME280;4386;51.236;6.742;2022-10-03T01:46:19;102135.34;;;12.04;84.17
8699;BME280;4386;51.236;6.742;2022-10-03T01:47:27;102137.16;;;12.04;84.28
8699;BME280;4386;51.236;6.742;2022-10-03T01:48:37;102146.06;;;12.02;84.34
8699;BME280;4386;51.236;6.742;2022-10-03T01:49:50;102143.41;;;12.02;84.16
8699;BME280;4386;51.236;6.742;2022-10-03T01:51:00;102144.34;;;12.01;84.33
8699;BME280;4386;51.236;6.742;2022-10-03T01:52:10;102138.09;;;12.02;84.39
8699;BME280;4386;51.236;6.742;2022-10-03T01:53:24;102139.03;;;12.01;84.29
8699;BME280;4386;51.236;6.742;2022-10-03T01:54:33;102140.75;;;12.02;84.36
8699;BME280;4386;51.236;6.742;2022-10-03T01:55:45;102147.00;;;12.01;84.41
8699;BME280;4386;51.236;6.742;2022-10-03T01:56:55;102143.47;;;12.01;84.22
8699;BME280;4386;51.236;6.742;2022-10-03T01:58:04;102147.97;;;12.00;84.39
8699;BME280;4386;51.236;6.742;2022-10-03T01:59:12;102146.25;;;11.99;84.63
8699;BME280;4386;51.236;6.742;2022-10-03T02:00:22;102146.25;;;11.99;84.45
8699;BME280;4386;51.236;6.742;2022-10-03T02:01:32;102150.72;;;11.99;84.49
8699;BME280;4386;51.236;6.742;2022-10-03T02:02:41;102148.91;;;11.99;84.46
8699;BME280;4386;51.236;6.742;2022-10-03T02:03:51;102152.50;;;11.98;84.43
8699;BME280;4386;51.236;6.742;2022-10-03T02:05:02;102156.88;;;11.99;84.82
8699;BME280;4386;51.236;6.742;2022-10-03T02:06:13;102153.28;;;12.00;84.46
8699;BME280;4386;51.236;6.742;2022-10-03T02:07:26;102164.66;;;12.02;84.68
8699;BME280;4386;51.236;6.742;2022-10-03T02:08:48;102168.25;;;12.01;84.69
8699;BME280;4386;51.236;6.742;2022-10-03T02:10:02;102170.84;;;12.03;84.80
8699;BME280;4386;51.236;6.742;2022-10-03T02:11:09;102162.88;;;12.03;84.85
8699;BME280;4386;51.236;6.742;2022-10-03T02:12:21;102173.38;;;12.05;84.93
8699;BME280;4386;51.236;6.742;2022-10-03T02:13:27;102176.03;;;12.05;84.88
8699;BME280;4386;51.236;6.742;2022-10-03T02:14:39;102170.72;;;12.05;84.71
8699;BME280;4386;51.236;6.742;2022-10-03T02:15:56;102169.78;;;12.06;84.89
8699;BME280;4386;51.236;6.742;2022-10-03T02:17:05;102172.44;;;12.06;85.05
8699;BME280;4386;51.236;6.742;2022-10-03T02:18:13;102171.69;;;12.04;85.04
8699;BME280;4386;51.236;6.742;2022-10-03T02:19:21;102180.59;;;12.02;85.05
8699;BME280;4386;51.236;6.742;2022-10-03T02:20:33;102166.56;;;12.00;85.05
8699;BME280;4386;51.236;6.742;2022-10-03T02:21:46;102170.16;;;11.99;84.99
8699;BME280;4386;51.236;6.742;2022-10-03T02:22:51;102164.84;;;11.99;84.85
8699;BME280;4386;51.236;6.742;2022-10-03T02:24:23;102166.75;;;11.97;84.88
8699;BME280;4386;51.236;6.742;2022-10-03T02:25:40;102165.13;;;11.95;84.96
8699;BME280;4386;51.236;6.742;2022-10-03T02:27:10;102170.53;;;11.93;84.79
8699;BME280;4386;51.236;6.742;2022-10-03T02:28:34;102168.06;;;11.90;84.93
8699;BME280;4386;51.236;6.742;2022-10-03T02:30:10;102172.53;;;11.90;84.93
8699;BME280;4386;51.236;6.742;2022-10-03T02:31:29;102168.25;;;11.87;84.89
8699;BME280;4386;51.236;6.742;2022-10-03T02:33:34;102167.41;;;11.87;84.76
8699;BME280;4386;51.236;6.742;2022-10-03T02:35:05;102163.97;;;11.85;84.86
8699;BME280;4386;51.236;6.742;2022-10-03T02:36:42;102167.66;;;11.82;84.94
8699;BME280;4386;51.236;6.742;2022-10-03T02:38:25;102168.59;;;11.81;84.75
8699;BME280;4386;51.236;6.742;2022-10-03T02:39:53;102168.78;;;11.78;84.78
8699;BME280;4386;51.236;6.742;2022-10-03T02:41:12;102174.09;;;11.78;85.00
8699;BME280;4386;51.236;6.742;2022-10-03T02:44:29;102168.97;;;11.75;84.88
8699;BME280;4386;51.236;6.742;2022-10-03T02:46:08;102173.53;;;11.73;85.06
8699;BME280;4386;51.236;6.742;2022-10-03T02:47:36;102178.09;;;11.71;84.93
8699;BME280;4386;51.236;6.742;2022-10-03T02:49:03;102171.91;;;11.71;85.09
8699;BME280;4386;51.236;6.742;2022-10-03T02:51:43;102172.91;;;11.68;85.09
8699;BME280;4386;51.236;6.742;2022-10-03T02:53:04;102176.53;;;11.67;85.05
8699;BME280;4386;51.236;6.742;2022-10-03T02:54:36;102171.22;;;11.67;85.10
8699;BME280;4386;51.236;6.742;2022-10-03T02:57:24;102183.72;;;11.65;85.11
8699;BME280;4386;51.236;6.742;2022-10-03T02:58:54;102182.03;;;11.64;85.04
8699;BME280;4386;51.236;6.742;2022-10-03T03:00:07;102185.59;;;11.63;85.16
8699;BME280;4386;51.236;6.742;2022-10-03T03:03:30;102183.88;;;11.62;85.32
8699;BME280;4386;51.236;6.742;2022-10-03T03:06:36;102186.66;;;11.61;85.18
8699;BME280;4386;51.236;6.742;2022-10-03T03:08:00;102190.16;;;11.61;85.05
8699;BME280;4386;51.236;6.742;2022-10-03T03:09:24;102194.50;;;11.62;85.42
8699;BME280;4386;51.236;6.742;2022-10-03T03:10:54;102191.78;;;11.64;85.49
8699;BME280;4386;51.236;6.742;2022-10-03T03:14:08;102204.78;;;11.68;85.54
8699;BME280;4386;51.236;6.742;2022-10-03T03:17:12;102197.44;;;11.73;85.38
8699;BME280;4386;51.236;6.742;2022-10-03T03:18:26;102191.94;;;11.76;85.76
8699;BME280;4386;51.236;6.742;2022-10-03T03:21:25;102202.97;;;11.84;85.56
8699;BME280;4386;51.236;6.742;2022-10-03T03:22:39;102201.94;;;11.87;85.79
8699;BME280;4386;51.236;6.742;2022-10-03T03:23:57;102198.22;;;11.89;85.95
8699;BME280;4386;51.236;6.742;2022-10-03T03:25:27;102203.34;;;11.92;85.78
8699;BME280;4386;51.236;6.742;2022-10-03T03:26:52;102202.31;;;11.95;85.82
8699;BME280;4386;51.236;6.742;2022-10-03T03:28:05;102196.00;;;11.97;85.87
8699;BME280;4386;51.236;6.742;2022-10-03T03:29:20;102200.25;;;12.00;85.73
8699;BME280;4386;51.236;6.742;2022-10-03T03:30:30;102201.13;;;12.00;85.90
8699;BME280;4386;51.236;6.742;2022-10-03T03:31:44;102196.75;;;11.99;85.75
8699;BME280;4386;51.236;6.742;2022-10-03T03:33:02;102199.41;;;11.99;85.92
8699;BME280;4386;51.236;6.742;2022-10-03T03:34:14;102196.63;;;12.01;85.99
8699;BME280;4386;51.236;6.742;2022-10-03T03:35:27;102200.16;;;12.01;85.92
8699;BME280;4386;51.236;6.742;2022-10-03T03:36:36;102200.94;;;12.04;85.94
8699;BME280;4386;51.236;6.742;2022-10-03T03:37:47;102201.78;;;12.04;86.01
8699;BME280;4386;51.236;6.742;2022-10-03T03:39:01;102199.03;;;12.06;85.88
8699;BME280;4386;51.236;6.742;2022-10-03T03:40:22;102194.44;;;12.08;85.95
8699;BME280;4386;51.236;6.742;2022-10-03T03:41:41;102186.47;;;12.08;85.57
8699;BME280;4386;51.236;6.742;2022-10-03T03:45:54;102196.16;;;12.09;85.83
8699;BME280;4386;51.236;6.742;2022-10-03T03:47:16;102189.91;;;12.10;85.84
8699;BME280;4386;51.236;6.742;2022-10-03T03:48:54;102195.22;;;12.10;85.79
8699;BME280;4386;51.236;6.742;2022-10-03T03:50:17;102196.84;;;12.12;85.58
8699;BME280;4386;51.236;6.742;2022-10-03T03:51:31;102195.03;;;12.13;85.65
8699;BME280;4386;51.236;6.742;2022-10-03T03:52:44;102191.44;;;12.14;85.87
8699;BME280;4386;51.236;6.742;2022-10-03T03:54:13;102202.81;;;12.16;85.80
8699;BME280;4386;51.236;6.742;2022-10-03T03:55:47;102198.44;;;12.15;85.75
8699;BME280;4386;51.236;6.742;2022-10-03T03:57:09;102197.59;;;12.14;85.76
8699;BME280;4386;51.236;6.742;2022-10-03T03:58:25;102195.03;;;12.13;85.52
8699;BME280;4386;51.236;6.742;2022-10-03T03:59:44;102204.91;;;12.11;85.56
8699;BME280;4386;51.236;6.742;2022-10-03T04:01:01;102198.81;;;12.09;85.72
8699;BME280;4386;51.236;6.742;2022-10-03T04:02:24;102196.16;;;12.09;85.91
8699;BME280;4386;51.236;6.742;2022-10-03T04:03:35;102198.94;;;12.07;85.64
8699;BME280;4386;51.236;6.742;2022-10-03T04:05:00;102199.03;;;12.06;85.73
8699;BME280;4386;51.236;6.742;2022-10-03T04:06:25;102206.91;;;12.07;85.80
8699;BME280;4386;51.236;6.742;2022-10-03T04:07:45;102209.47;;;12.09;85.76
8699;BME280;4386;51.236;6.742;2022-10-03T04:09:02;102208.59;;;12.08;85.80
8699;BME280;4386;51.236;6.742;2022-10-03T04:10:16;102206.72;;;12.10;85.59
8699;BME280;4386;51.236;6.742;2022-10-03T04:11:26;102208.41;;;12.11;85.58
8699;BME280;4386;51.236;6.742;2022-10-03T04:12:45;102211.00;;;12.13;85.42
8699;BME280;4386;51.236;6.742;2022-10-03T04:14:13;102217.91;;;12.15;85.70
8699;BME280;4386;51.236;6.742;2022-10-03T04:15:33;102222.28;;;12.16;85.45
8699;BME280;4386;51.236;6.742;2022-10-03T04:16:48;102216.88;;;12.18;85.56
8699;BME280;4386;51.236;6.742;2022-10-03T04:18:28;102214.22;;;12.18;85.45
8699;BME280;4386;51.236;6.742;2022-10-03T04:20:04;102222.09;;;12.19;85.51
8699;BME280;4386;51.236;6.742;2022-10-03T04:21:24;102215.94;;;12.19;85.46
8699;BME280;4386;51.236;6.742;2022-10-03T04:22:47;102219.53;;;12.18;85.66
8699;BME280;4386;51.236;6.742;2022-10-03T04:24:07;102223.03;;;12.18;85.60
8699;BME280;4386;51.236;6.742;2022-10-03T04:25:36;102214.22;;;12.18;85.43
8699;BME280;4386;51.236;6.742;2022-10-03T04:26:55;102214.22;;;12.18;85.57
8699;BME280;4386;51.236;6.742;2022-10-03T04:28:29;102219.34;;;12.21;85.61
8699;BME280;4386;51.236;6.742;2022-10-03T04:29:42;102216.69;;;12.21;85.65
8699;BME280;4386;51.236;6.742;2022-10-03T04:30:51;102213.00;;;12.23;85.54
8699;BME280;4386;51.236;6.742;2022-10-03T04:32:08;102219.00;;;12.27;85.59
8699;BME280;4386;51.236;6.742;2022-10-03T04:33:25;102218.03;;;12.28;85.63
8699;BME280;4386;51.236;6.742;2022-10-03T04:34:43;102213.47;;;12.30;85.67
8699;BME280;4386;51.236;6.742;2022-10-03T04:37:31;102214.16;;;12.33;85.31
8699;BME280;4386;51.236;6.742;2022-10-03T04:38:45;102212.31;;;12.34;85.38
8699;BME280;4386;51.236;6.742;2022-10-03T04:40:05;102209.66;;;12.34;85.29
8699;BME280;4386;51.236;6.742;2022-10-03T04:41:18;102203.41;;;12.35;85.14
8699;BME280;4386;51.236;6.742;2022-10-03T04:42:33;102213.97;;;12.36;85.24
8699;BME280;4386;51.236;6.742;2022-10-03T04:43:44;102206.81;;;12.37;85.31
8699;BME280;4386;51.236;6.742;2022-10-03T04:45:02;102212.25;;;12.35;85.39
8699;BME280;4386;51.236;6.742;2022-10-03T04:46:18;102206.06;;;12.35;85.24
8699;BME280;4386;51.236;6.742;2022-10-03T04:47:27;102219.47;;;12.33;85.18
8699;BME280;4386;51.236;6.742;2022-10-03T04:48:37;102214.16;;;12.33;85.19
8699;BME280;4386;51.236;6.742;2022-10-03T04:49:44;102222.22;;;12.32;85.09
8699;BME280;4386;51.236;6.742;2022-10-03T04:50:59;102220.59;;;12.29;85.23
8699;BME280;4386;51.236;6.742;2022-10-03T04:52:10;102219.81;;;12.27;84.81
8699;BME280;4386;51.236;6.742;2022-10-03T04:53:25;102219.00;;;12.27;84.87
8699;BME280;4386;51.236;6.742;2022-10-03T04:54:47;102215.56;;;12.25;85.13
8699;BME280;4386;51.236;6.742;2022-10-03T04:55:58;102214.69;;;12.24;85.28
8699;BME280;4386;51.236;6.742;2022-10-03T04:57:06;102217.47;;;12.23;85.08
8699;BME280;4386;51.236;6.742;2022-10-03T04:58:19;102220.97;;;12.23;85.19
8699;BME280;4386;51.236;6.742;2022-10-03T04:59:28;102225.44;;;12.23;85.33
8699;BME280;4386;51.236;6.742;2022-10-03T05:00:45;102223.63;;;12.23;85.36
8699;BME280;4386;51.236;6.742;2022-10-03T05:01:53;102219.06;;;12.25;85.40
8699;BME280;4386;51.236;6.742;2022-10-03T05:03:02;102217.16;;;12.27;85.49
8699;BME280;4386;51.236;6.742;2022-10-03T05:04:17;102224.19;;;12.28;85.43
8699;BME280;4386;51.236;6.742;2022-10-03T05:05:54;102209.84;;;12.31;85.27
8699;BME280;4386;51.236;6.742;2022-10-03T05:07:05;102218.63;;;12.33;85.20
8699;BME280;4386;51.236;6.742;2022-10-03T05:08:22;102220.28;;;12.34;85.44
8699;BME280;4386;51.236;6.742;2022-10-03T05:09:36;102222.97;;;12.34;85.46
8699;BME280;4386;51.236;6.742;2022-10-03T05:10:54;102218.41;;;12.36;85.14
8699;BME280;4386;51.236;6.742;2022-10-03T05:12:04;102217.56;;;12.35;85.46
8699;BME280;4386;51.236;6.742;2022-10-03T05:13:13;102223.75;;;12.36;85.18
8699;BME280;4386;51.236;6.742;2022-10-03T05:14:24;102220.09;;;12.37;85.15
8699;BME280;4386;51.236;6.742;2022-10-03T05:15:32;102225.44;;;12.37;85.43
8699;BME280;4386;51.236;6.742;2022-10-03T05:16:39;102220.88;;;12.39;85.36
8699;BME280;4386;51.236;6.742;2022-10-03T05:17:48;102220.03;;;12.38;85.49
8699;BME280;4386;51.236;6.742;2022-10-03T05:20:36;102221.81;;;12.38;85.28
8699;BME280;4386;51.236;6.742;2022-10-03T05:21:46;102225.28;;;12.40;85.22
8699;BME280;4386;51.236;6.742;2022-10-03T05:22:57;102229.72;;;12.39;85.42
8699;BME280;4386;51.236;6.742;2022-10-03T05:24:18;102232.28;;;12.41;85.13
8699;BME280;4386;51.236;6.742;2022-10-03T05:25:31;102225.28;;;12.40;85.37
8699;BME280;4386;51.236;6.742;2022-10-03T05:26:42;102230.59;;;12.40;85.29
8699;BME280;4386;51.236;6.742;2022-10-03T05:27:55;102239.50;;;12.39;85.37
8699;BME280;4386;51.236;6.742;2022-10-03T05:29:03;102240.38;;;12.39;85.20
8699;BME280;4386;51.236;6.742;2022-10-03T05:30:16;102245.56;;;12.41;85.13
8699;BME280;4386;51.236;6.742;2022-10-03T05:31:27;102242.03;;;12.40;85.15
8699;BME280;4386;51.236;6.742;2022-10-03T05:32:37;102240.25;;;12.41;85.25
8699;BME280;4386;51.236;6.742;2022-10-03T05:33:45;102243.78;;;12.41;85.25
8699;BME280;4386;51.236;6.742;2022-10-03T05:35:03;102243.78;;;12.41;85.21
8699;BME280;4386;51.236;6.742;2022-10-03T05:36:14;102243.69;;;12.43;85.26
8699;BME280;4386;51.236;6.742;2022-10-03T05:37:40;102246.34;;;12.43;85.27
8699;BME280;4386;51.236;6.742;2022-10-03T05:40:39;102247.84;;;12.47;85.41
8699;BME280;4386;51.236;6.742;2022-10-03T05:41:50;102245.19;;;12.47;85.11
8699;BME280;4386;51.236;6.742;2022-10-03T05:43:26;102249.56;;;12.48;85.32
8699;BME280;4386;51.236;6.742;2022-10-03T05:44:39;102243.31;;;12.49;85.13
8699;BME280;4386;51.236;6.742;2022-10-03T05:45:48;102249.56;;;12.48;85.26
8699;BME280;4386;51.236;6.742;2022-10-03T05:46:58;102248.69;;;12.47;85.31
8699;BME280;4386;51.236;6.742;2022-10-03T05:48:14;102244.25;;;12.48;85.29
8699;BME280;4386;51.236;6.742;2022-10-03T05:52:35;102252.97;;;12.50;85.41
8699;BME280;4386;51.236;6.742;2022-10-03T05:55:31;102261.91;;;12.49;85.33
8699;BME280;4386;51.236;6.742;2022-10-03T05:56:50;102260.19;;;12.48;85.16
8699;BME280;4386;51.236;6.742;2022-10-03T05:58:14;102256.69;;;12.47;85.16
8699;BME280;4386;51.236;6.742;2022-10-03T05:59:38;102261.91;;;12.49;84.99
8699;BME280;4386;51.236;6.742;2022-10-03T06:01:01;102258.47;;;12.47;84.86
8699;BME280;4386;51.236;6.742;2022-10-03T06:02:34;102265.53;;;12.48;85.23
8699;BME280;4386;51.236;6.742;2022-10-03T06:04:04;102262.88;;;12.48;85.09
8699;BME280;4386;51.236;6.742;2022-10-03T06:05:23;102265.44;;;12.49;84.88
8699;BME280;4386;51.236;6.742;2022-10-03T06:06:33;102270.66;;;12.51;85.11
8699;BME280;4386;51.236;6.742;2022-10-03T06:07:56;102272.38;;;12.52;84.88
8699;BME280;4386;51.236;6.742;2022-10-03T06:09:19;102268.78;;;12.53;84.96
8699;BME280;4386;51.236;6.742;2022-10-03T06:10:42;102273.13;;;12.54;85.11
8699;BME280;4386;51.236;6.742;2022-10-03T06:12:07;102272.19;;;12.55;84.97
8699;BME280;4386;51.236;6.742;2022-10-03T06:13:18;102271.25;;;12.56;84.83
8699;BME280;4386;51.236;6.742;2022-10-03T06:14:29;102271.13;;;12.58;84.83
8699;BME280;4386;51.236;6.742;2022-10-03T06:15:46;102268.38;;;12.59;84.75
8699;BME280;4386;51.236;6.742;2022-10-03T06:17:05;102280.72;;;12.60;84.80
8699;BME280;4386;51.236;6.742;2022-10-03T06:19:46;102272.66;;;12.62;84.60
8699;BME280;4386;51.236;6.742;2022-10-03T06:21:11;102273.50;;;12.62;84.92
8699;BME280;4386;51.236;6.742;2022-10-03T06:22:50;102279.69;;;12.63;84.88
8699;BME280;4386;51.236;6.742;2022-10-03T06:24:28;102276.91;;;12.64;84.93
8699;BME280;4386;51.236;6.742;2022-10-03T06:27:39;102276.91;;;12.64;84.68
8699;BME280;4386;51.236;6.742;2022-10-03T06:29:24;102276.06;;;12.64;84.78
8699;BME280;4386;51.236;6.742;2022-10-03T06:30:48;102276.06;;;12.64;84.57
8699;BME280;4386;51.236;6.742;2022-10-03T06:32:22;102278.84;;;12.62;84.54
8699;BME280;4386;51.236;6.742;2022-10-03T06:34:16;102280.53;;;12.63;84.41
8699;BME280;4386;51.236;6.742;2022-10-03T06:35:46;102285.84;;;12.63;84.58
8699;BME280;4386;51.236;6.742;2022-10-03T06:37:08;102282.25;;;12.64;84.76
8699;BME280;4386;51.236;6.742;2022-10-03T06:40:38;102282.06;;;12.67;84.39
8699;BME280;4386;51.236;6.742;2022-10-03T06:42:16;102282.91;;;12.68;84.54
8699;BME280;4386;51.236;6.742;2022-10-03T06:45:17;102276.53;;;12.70;84.43
8699;BME280;4386;51.236;6.742;2022-10-03T06:46:42;102287.00;;;12.73;84.30
8699;BME280;4386;51.236;6.742;2022-10-03T06:48:02;102281.66;;;12.73;84.30
8699;BME280;4386;51.236;6.742;2022-10-03T06:49:41;102282.53;;;12.74;84.55
8699;BME280;4386;51.236;6.742;2022-10-03T06:50:52;102279.00;;;12.73;84.27
8699;BME280;4386;51.236;6.742;2022-10-03T06:52:11;102284.25;;;12.75;84.08
8699;BME280;4386;51.236;6.742;2022-10-03T06:53:36;102284.31;;;12.73;84.16
8699;BME280;4386;51.236;6.742;2022-10-03T06:55:10;102287.09;;;12.72;84.23
8699;BME280;4386;51.236;6.742;2022-10-03T06:56:48;102283.56;;;12.71;84.13
8699;BME280;4386;51.236;6.742;2022-10-03T06:58:12;102288.03;;;12.71;84.09
8699;BME280;4386;51.236;6.742;2022-10-03T07:01:04;102290.63;;;12.72;84.00
8699;BME280;4386;51.236;6.742;2022-10-03T07:02:40;102288.63;;;12.76;84.23
8699;BME280;4386;51.236;6.742;2022-10-03T07:04:02;102293.66;;;12.80;84.07
8699;BME280;4386;51.236;6.742;2022-10-03T07:07:02;102296.50;;;12.91;84.07
8699;BME280;4386;51.236;6.742;2022-10-03T07:08:30;102291.00;;;12.94;84.04
8699;BME280;4386;51.236;6.742;2022-10-03T07:10:00;102297.72;;;13.00;83.94
8699;BME280;4386;51.236;6.742;2022-10-03T07:11:21;102292.13;;;13.04;83.73
8699;BME280;4386;51.236;6.742;2022-10-03T07:12:44;102291.75;;;13.11;83.68
8699;BME280;4386;51.236;6.742;2022-10-03T07:14:10;102297.56;;;13.17;83.62
8699;BME280;4386;51.236;6.742;2022-10-03T07:17:40;102295.91;;;13.29;83.40
8699;BME280;4386;51.236;6.742;2022-10-03T07:19:33;102307.22;;;13.32;82.98
8699;BME280;4386;51.236;6.742;2022-10-03T07:20:57;102307.00;;;13.35;83.09
8699;BME280;4386;51.236;6.742;2022-10-03T07:22:40;102302.53;;;13.36;82.86
8699;BME280;4386;51.236;6.742;2022-10-03T07:24:02;102301.69;;;13.35;82.67
8699;BME280;4386;51.236;6.742;2022-10-03T07:25:25;102307.00;;;13.35;83.11
8699;BME280;4386;51.236;6.742;2022-10-03T07:30:06;102304.47;;;13.34;82.90
8699;BME280;4386;51.236;6.742;2022-10-03T07:31:18;102313.19;;;13.36;82.80
8699;BME280;4386;51.236;6.742;2022-10-03T07:32:35;102313.13;;;13.37;82.61
8699;BME280;4386;51.236;6.742;2022-10-03T07:35:44;102321.75;;;13.41;82.30
8699;BME280;4386;51.236;6.742;2022-10-03T07:37:20;102318.91;;;13.44;82.48
8699;BME280;4386;51.236;6.742;2022-10-03T07:39:04;102321.38;;;13.47;82.35
8699;BME280;4386;51.236;6.742;2022-10-03T07:42:12;102319.44;;;13.49;82.04
8699;BME280;4386;51.236;6.742;2022-10-03T07:43:50;102322.03;;;13.50;82.53
8699;BME280;4386;51.236;6.742;2022-10-03T07:45:37;102325.34;;;13.54;82.29
8699;BME280;4386;51.236;6.742;2022-10-03T07:48:24;102328.66;;;13.57;82.19
8699;BME280;4386;51.236;6.742;2022-10-03T07:51:36;102341.00;;;13.58;81.99
8699;BME280;4386;51.236;6.742;2022-10-03T07:52:54;102334.81;;;13.58;82.15
8699;BME280;4386;51.236;6.742;2022-10-03T07:55:50;102343.78;;;13.57;81.95
8699;BME280;4386;51.236;6.742;2022-10-03T07:58:53;102341.13;;;13.57;81.89
8699;BME280;4386;51.236;6.742;2022-10-03T08:00:07;102344.53;;;13.59;81.53
8699;BME280;4386;51.236;6.742;2022-10-03T08:01:46;102339.97;;;13.61;81.77
8699;BME280;4386;51.236;6.742;2022-10-03T08:04:57;102346.13;;;13.62;81.93
8699;BME280;4386;51.236;6.742;2022-10-03T08:06:16;102344.53;;;13.59;82.01
8699;BME280;4386;51.236;6.742;2022-10-03T08:07:41;102347.41;;;13.56;81.90
8699;BME280;4386;51.236;6.742;2022-10-03T08:09:23;102345.78;;;13.53;82.21
8699;BME280;4386;51.236;6.742;2022-10-03T08:10:57;102346.84;;;13.51;82.03
8699;BME280;4386;51.236;6.742;2022-10-03T08:12:19;102340.88;;;13.47;81.75
8699;BME280;4386;51.236;6.742;2022-10-03T08:13:35;102337.44;;;13.45;82.02
8699;BME280;4386;51.236;6.742;2022-10-03T08:14:52;102350.09;;;13.42;82.09
8699;BME280;4386;51.236;6.742;2022-10-03T08:16:08;102346.69;;;13.40;82.02